sensor_id;sensor_type;location;lat;lon;timestamp;temperature;humidity
31133;DHT22;17779;50.942;4.026;2023-02-21T00:00:04;8.40;99.90
31133;DHT22;17779;50.942;4.026;2023-02-21T00:02:49;8.30;99.90
31133;DHT22;17779;50.942;4.026;2023-02-21T00:05:33;8.20;99.90
31133;DHT22;17779;50.942;4.026;2023-02-21T00:08:17;8.30;99.90
31133;DHT22;17779;50.942;4.026;2023-02-21T00:11:01;8.60;99.90
31133;DHT22;17779;50.942;4.026;2023-02-21T00:13:45;8.40;99.90
31133;DHT22;17779;50.942;4.026;2023-02-21T00:16:29;8.20;99.90
31133;DHT22;17779;50.942;4.026;2023-02-21T00:19:14;8.20;99.90
31133;DHT22;17779;50.942;4.026;2023-02-21T00:21:58;8.30;99.90
31133;DHT22;17779;50.942;4.026;2023-02-21T00:24:42;8.60;99.90
31133;DHT22;17779;50.942;4.026;2023-02-21T00:27:26;8.50;99.90
31133;DHT22;17779;50.942;4.026;2023-02-21T00:30:10;8.60;99.90
31133;DHT22;17779;50.942;4.026;2023-02-21T00:32:55;8.30;99.90
31133;DHT22;17779;50.942;4.026;2023-02-21T00:35:39;8.50;99.90
31133;DHT22;17779;50.942;4.026;2023-02-21T00:38:23;8.50;99.90
31133;DHT22;17779;50.942;4.026;2023-02-21T00:41:08;8.70;99.90
31133;DHT22;17779;50.942;4.026;2023-02-21T00:43:52;8.40;99.90
31133;DHT22;17779;50.942;4.026;2023-02-21T00:46:36;8.40;99.90
31133;DHT22;17779;50.942;4.026;2023-02-21T00:49:20;8.60;99.90
31133;DHT22;17779;50.942;4.026;2023-02-21T00:52:04;8.50;99.90
31133;DHT22;17779;50.942;4.026;2023-02-21T00:54:49;8.50;99.90
31133;DHT22;17779;50.942;4.026;2023-02-21T00:57:33;8.60;99.90
31133;DHT22;17779;50.942;4.026;2023-02-21T01:00:18;8.60;99.90
31133;DHT22;17779;50.942;4.026;2023-02-21T01:03:03;8.80;99.90
31133;DHT22;17779;50.942;4.026;2023-02-21T01:05:47;8.90;99.90
31133;DHT22;17779;50.942;4.026;2023-02-21T01:08:31;8.90;99.90
31133;DHT22;17779;50.942;4.026;2023-02-21T01:11:16;8.60;99.90
31133;DHT22;17779;50.942;4.026;2023-02-21T01:14:01;8.30;99.90
31133;DHT22;17779;50.942;4.026;2023-02-21T01:16:45;8.10;99.90
31133;DHT22;17779;50.942;4.026;2023-02-21T01:19:29;8.00;99.90
31133;DHT22;17779;50.942;4.026;2023-02-21T01:22:13;7.90;99.90
31133;DHT22;17779;50.942;4.026;2023-02-21T01:24:58;8.00;99.90
31133;DHT22;17779;50.942;4.026;2023-02-21T01:27:42;7.90;99.90
31133;DHT22;17779;50.942;4.026;2023-02-21T01:30:26;7.90;99.90
31133;DHT22;17779;50.942;4.026;2023-02-21T01:33:10;7.90;99.90
31133;DHT22;17779;50.942;4.026;2023-02-21T01:35:54;8.10;99.90
31133;DHT22;17779;50.942;4.026;2023-02-21T01:38:38;8.10;99.90
31133;DHT22;17779;50.942;4.026;2023-02-21T01:41:22;8.20;99.90
31133;DHT22;17779;50.942;4.026;2023-02-21T01:44:26;8.10;99.90
31133;DHT22;17779;50.942;4.026;2023-02-21T01:47:11;8.10;99.90
31133;DHT22;17779;50.942;4.026;2023-02-21T01:49:57;8.20;99.90
31133;DHT22;17779;50.942;4.026;2023-02-21T01:52:42;8.40;99.90
31133;DHT22;17779;50.942;4.026;2023-02-21T01:55:26;8.60;99.90
31133;DHT22;17779;50.942;4.026;2023-02-21T01:58:10;8.70;99.90
31133;DHT22;17779;50.942;4.026;2023-02-21T02:00:54;8.50;99.90
31133;DHT22;17779;50.942;4.026;2023-02-21T02:03:38;8.60;99.90
31133;DHT22;17779;50.942;4.026;2023-02-21T02:06:25;8.50;99.90
31133;DHT22;17779;50.942;4.026;2023-02-21T02:09:14;8.70;99.90
31133;DHT22;17779;50.942;4.026;2023-02-21T02:12:22;8.90;99.90
31133;DHT22;17779;50.942;4.026;2023-02-21T02:14:54;9.00;99.90
31133;DHT22;17779;50.942;4.026;2023-02-21T02:25:29;8.70;99.90
31133;DHT22;17779;50.942;4.026;2023-02-21T02:33:08;8.70;99.90
31133;DHT22;17779;50.942;4.026;2023-02-21T02:35:59;8.80;99.90
31133;DHT22;17779;50.942;4.026;2023-02-21T02:38:35;8.40;99.90
31133;DHT22;17779;50.942;4.026;2023-02-21T02:41:04;8.20;99.90
31133;DHT22;17779;50.942;4.026;2023-02-21T02:43:37;8.30;99.90
31133;DHT22;17779;50.942;4.026;2023-02-21T02:46:08;8.30;99.90
31133;DHT22;17779;50.942;4.026;2023-02-21T02:48:36;8.30;99.90
31133;DHT22;17779;50.942;4.026;2023-02-21T02:51:05;8.40;99.90
31133;DHT22;17779;50.942;4.026;2023-02-21T02:53:32;8.50;99.90
31133;DHT22;17779;50.942;4.026;2023-02-21T02:56:30;8.40;99.90
31133;DHT22;17779;50.942;4.026;2023-02-21T02:58:55;8.30;99.90
31133;DHT22;17779;50.942;4.026;2023-02-21T03:06:33;8.50;99.90
31133;DHT22;17779;50.942;4.026;2023-02-21T03:11:25;8.40;99.90
31133;DHT22;17779;50.942;4.026;2023-02-21T03:13:55;8.50;99.90
31133;DHT22;17779;50.942;4.026;2023-02-21T03:16:23;8.40;99.90
31133;DHT22;17779;50.942;4.026;2023-02-21T03:18:53;8.40;99.90
31133;DHT22;17779;50.942;4.026;2023-02-21T03:21:21;8.40;99.90
31133;DHT22;17779;50.942;4.026;2023-02-21T03:23:50;8.30;99.90
31133;DHT22;17779;50.942;4.026;2023-02-21T03:26:17;8.00;99.90
31133;DHT22;17779;50.942;4.026;2023-02-21T03:28:43;7.90;99.90
31133;DHT22;17779;50.942;4.026;2023-02-21T03:31:11;7.90;99.90
31133;DHT22;17779;50.942;4.026;2023-02-21T03:33:37;7.90;99.90
31133;DHT22;17779;50.942;4.026;2023-02-21T03:36:03;7.80;99.90
31133;DHT22;17779;50.942;4.026;2023-02-21T03:38:29;7.80;99.90
31133;DHT22;17779;50.942;4.026;2023-02-21T03:40:55;7.90;99.90
31133;DHT22;17779;50.942;4.026;2023-02-21T03:43:22;7.80;99.90
31133;DHT22;17779;50.942;4.026;2023-02-21T03:45:48;7.90;99.90
31133;DHT22;17779;50.942;4.026;2023-02-21T03:48:13;7.90;99.90
31133;DHT22;17779;50.942;4.026;2023-02-21T03:50:39;7.70;99.90
31133;DHT22;17779;50.942;4.026;2023-02-21T03:53:05;7.60;99.90
31133;DHT22;17779;50.942;4.026;2023-02-21T03:55:31;7.60;99.90
31133;DHT22;17779;50.942;4.026;2023-02-21T03:57:56;7.50;99.90
31133;DHT22;17779;50.942;4.026;2023-02-21T04:00:22;7.60;99.90
31133;DHT22;17779;50.942;4.026;2023-02-21T04:02:48;7.60;99.90
31133;DHT22;17779;50.942;4.026;2023-02-21T04:05:13;7.50;99.90
31133;DHT22;17779;50.942;4.026;2023-02-21T04:07:39;7.50;99.90
31133;DHT22;17779;50.942;4.026;2023-02-21T04:10:05;7.60;99.90
31133;DHT22;17779;50.942;4.026;2023-02-21T04:12:31;7.60;99.90
31133;DHT22;17779;50.942;4.026;2023-02-21T04:14:56;7.60;99.90
31133;DHT22;17779;50.942;4.026;2023-02-21T04:17:23;7.60;99.90
31133;DHT22;17779;50.942;4.026;2023-02-21T04:19:49;7.50;99.90
31133;DHT22;17779;50.942;4.026;2023-02-21T04:22:14;7.60;99.90
31133;DHT22;17779;50.942;4.026;2023-02-21T04:24:40;7.60;99.90
31133;DHT22;17779;50.942;4.026;2023-02-21T04:27:06;7.60;99.90
31133;DHT22;17779;50.942;4.026;2023-02-21T04:29:32;7.70;99.90
31133;DHT22;17779;50.942;4.026;2023-02-21T04:31:59;7.70;99.90
31133;DHT22;17779;50.942;4.026;2023-02-21T04:34:28;7.60;99.90
31133;DHT22;17779;50.942;4.026;2023-02-21T04:36:54;7.70;99.90
31133;DHT22;17779;50.942;4.026;2023-02-21T04:39:19;7.70;99.90
31133;DHT22;17779;50.942;4.026;2023-02-21T04:41:45;7.60;99.90
31133;DHT22;17779;50.942;4.026;2023-02-21T04:44:11;7.60;99.90
31133;DHT22;17779;50.942;4.026;2023-02-21T04:46:37;7.60;99.90
31133;DHT22;17779;50.942;4.026;2023-02-21T04:49:03;7.50;99.90
31133;DHT22;17779;50.942;4.026;2023-02-21T04:51:28;7.50;99.90
31133;DHT22;17779;50.942;4.026;2023-02-21T04:53:54;7.50;99.90
31133;DHT22;17779;50.942;4.026;2023-02-21T04:56:21;7.50;99.90
31133;DHT22;17779;50.942;4.026;2023-02-21T04:58:47;7.50;99.90
31133;DHT22;17779;50.942;4.026;2023-02-21T05:01:13;7.50;99.90
31133;DHT22;17779;50.942;4.026;2023-02-21T05:03:39;7.60;99.90
31133;DHT22;17779;50.942;4.026;2023-02-21T05:06:05;7.60;99.90
31133;DHT22;17779;50.942;4.026;2023-02-21T05:08:31;7.60;99.90
31133;DHT22;17779;50.942;4.026;2023-02-21T05:10:56;7.70;99.90
31133;DHT22;17779;50.942;4.026;2023-02-21T05:13:22;7.70;99.90
31133;DHT22;17779;50.942;4.026;2023-02-21T05:15:48;7.70;99.90
31133;DHT22;17779;50.942;4.026;2023-02-21T05:18:14;7.70;99.90
31133;DHT22;17779;50.942;4.026;2023-02-21T05:20:47;7.80;99.90
31133;DHT22;17779;50.942;4.026;2023-02-21T05:23:13;7.90;99.90
31133;DHT22;17779;50.942;4.026;2023-02-21T05:25:41;7.90;99.90
31133;DHT22;17779;50.942;4.026;2023-02-21T05:28:07;7.70;99.90
31133;DHT22;17779;50.942;4.026;2023-02-21T05:30:33;7.80;99.90
31133;DHT22;17779;50.942;4.026;2023-02-21T05:32:59;7.80;99.90
31133;DHT22;17779;50.942;4.026;2023-02-21T05:35:25;7.80;99.90
31133;DHT22;17779;50.942;4.026;2023-02-21T05:37:51;7.90;99.90
31133;DHT22;17779;50.942;4.026;2023-02-21T05:40:17;7.80;99.90
31133;DHT22;17779;50.942;4.026;2023-02-21T05:42:42;8.00;99.90
31133;DHT22;17779;50.942;4.026;2023-02-21T05:45:09;8.10;99.90
31133;DHT22;17779;50.942;4.026;2023-02-21T05:47:35;8.30;99.90
31133;DHT22;17779;50.942;4.026;2023-02-21T05:50:01;8.10;99.90
31133;DHT22;17779;50.942;4.026;2023-02-21T05:52:27;7.90;99.90
31133;DHT22;17779;50.942;4.026;2023-02-21T05:54:53;7.80;99.90
31133;DHT22;17779;50.942;4.026;2023-02-21T05:57:19;7.70;99.90
31133;DHT22;17779;50.942;4.026;2023-02-21T05:59:45;7.60;99.90
31133;DHT22;17779;50.942;4.026;2023-02-21T06:02:13;7.60;99.90
31133;DHT22;17779;50.942;4.026;2023-02-21T06:04:38;7.60;99.90
31133;DHT22;17779;50.942;4.026;2023-02-21T06:07:04;7.60;99.90
31133;DHT22;17779;50.942;4.026;2023-02-21T06:09:30;7.60;99.90
31133;DHT22;17779;50.942;4.026;2023-02-21T06:11:56;7.60;99.90
31133;DHT22;17779;50.942;4.026;2023-02-21T06:14:21;7.50;99.90
31133;DHT22;17779;50.942;4.026;2023-02-21T06:16:47;7.40;99.90
31133;DHT22;17779;50.942;4.026;2023-02-21T06:19:15;7.40;99.90
31133;DHT22;17779;50.942;4.026;2023-02-21T06:21:41;7.40;99.90
31133;DHT22;17779;50.942;4.026;2023-02-21T06:24:10;7.40;99.90
31133;DHT22;17779;50.942;4.026;2023-02-21T06:26:36;7.40;99.90
31133;DHT22;17779;50.942;4.026;2023-02-21T06:29:05;7.50;99.90
31133;DHT22;17779;50.942;4.026;2023-02-21T06:31:31;7.50;99.90
31133;DHT22;17779;50.942;4.026;2023-02-21T06:33:57;7.50;99.90
31133;DHT22;17779;50.942;4.026;2023-02-21T06:36:24;7.60;99.90
31133;DHT22;17779;50.942;4.026;2023-02-21T06:38:51;7.70;99.90
31133;DHT22;17779;50.942;4.026;2023-02-21T06:41:18;7.60;99.90
31133;DHT22;17779;50.942;4.026;2023-02-21T06:43:44;7.60;99.90
31133;DHT22;17779;50.942;4.026;2023-02-21T06:46:21;7.60;99.90
31133;DHT22;17779;50.942;4.026;2023-02-21T06:48:47;7.60;99.90
31133;DHT22;17779;50.942;4.026;2023-02-21T06:51:13;7.60;99.90
31133;DHT22;17779;50.942;4.026;2023-02-21T06:53:39;7.50;99.90
31133;DHT22;17779;50.942;4.026;2023-02-21T06:56:05;7.50;99.90
31133;DHT22;17779;50.942;4.026;2023-02-21T06:58:31;7.60;99.90
31133;DHT22;17779;50.942;4.026;2023-02-21T07:00:57;7.50;99.90
31133;DHT22;17779;50.942;4.026;2023-02-21T07:03:23;7.50;99.90
31133;DHT22;17779;50.942;4.026;2023-02-21T07:05:48;7.50;99.90
31133;DHT22;17779;50.942;4.026;2023-02-21T07:08:14;7.40;99.90
31133;DHT22;17779;50.942;4.026;2023-02-21T07:10:39;7.40;99.90
31133;DHT22;17779;50.942;4.026;2023-02-21T07:13:05;7.40;99.90
31133;DHT22;17779;50.942;4.026;2023-02-21T07:15:31;7.50;99.90
31133;DHT22;17779;50.942;4.026;2023-02-21T07:17:56;7.60;99.90
31133;DHT22;17779;50.942;4.026;2023-02-21T07:20:22;7.60;99.90
31133;DHT22;17779;50.942;4.026;2023-02-21T07:22:48;7.60;99.90
31133;DHT22;17779;50.942;4.026;2023-02-21T07:25:19;7.50;99.90
31133;DHT22;17779;50.942;4.026;2023-02-21T07:27:48;7.50;99.90
31133;DHT22;17779;50.942;4.026;2023-02-21T07:30:14;7.50;99.90
31133;DHT22;17779;50.942;4.026;2023-02-21T07:32:40;7.50;99.90
31133;DHT22;17779;50.942;4.026;2023-02-21T07:35:06;7.70;99.90
31133;DHT22;17779;50.942;4.026;2023-02-21T07:37:31;7.60;99.90
31133;DHT22;17779;50.942;4.026;2023-02-21T07:39:57;7.50;99.90
31133;DHT22;17779;50.942;4.026;2023-02-21T07:42:23;7.60;99.90
31133;DHT22;17779;50.942;4.026;2023-02-21T07:44:53;7.80;99.90
31133;DHT22;17779;50.942;4.026;2023-02-21T07:47:19;7.80;99.90
31133;DHT22;17779;50.942;4.026;2023-02-21T07:49:45;7.80;99.90
31133;DHT22;17779;50.942;4.026;2023-02-21T07:52:10;7.90;99.90
31133;DHT22;17779;50.942;4.026;2023-02-21T07:54:36;7.80;99.90
31133;DHT22;17779;50.942;4.026;2023-02-21T07:57:02;7.70;99.90
31133;DHT22;17779;50.942;4.026;2023-02-21T07:59:28;7.70;99.90
31133;DHT22;17779;50.942;4.026;2023-02-21T08:01:54;7.70;99.90
31133;DHT22;17779;50.942;4.026;2023-02-21T08:04:20;7.70;99.90
31133;DHT22;17779;50.942;4.026;2023-02-21T08:06:49;8.00;99.90
31133;DHT22;17779;50.942;4.026;2023-02-21T08:09:15;8.10;99.90
31133;DHT22;17779;50.942;4.026;2023-02-21T08:11:40;8.10;99.90
31133;DHT22;17779;50.942;4.026;2023-02-21T08:14:06;8.00;99.90
31133;DHT22;17779;50.942;4.026;2023-02-21T08:16:32;7.90;99.90
31133;DHT22;17779;50.942;4.026;2023-02-21T08:18:58;8.00;99.90
31133;DHT22;17779;50.942;4.026;2023-02-21T08:21:23;8.00;99.90
31133;DHT22;17779;50.942;4.026;2023-02-21T08:23:52;7.90;99.90
31133;DHT22;17779;50.942;4.026;2023-02-21T08:26:19;8.00;99.90
31133;DHT22;17779;50.942;4.026;2023-02-21T08:28:44;8.20;99.90
31133;DHT22;17779;50.942;4.026;2023-02-21T08:31:10;8.10;99.90
31133;DHT22;17779;50.942;4.026;2023-02-21T08:33:36;8.20;99.90
31133;DHT22;17779;50.942;4.026;2023-02-21T08:36:02;8.10;99.90
31133;DHT22;17779;50.942;4.026;2023-02-21T08:38:28;8.00;99.90
31133;DHT22;17779;50.942;4.026;2023-02-21T08:40:54;7.90;99.90
31133;DHT22;17779;50.942;4.026;2023-02-21T08:43:19;7.90;99.90
31133;DHT22;17779;50.942;4.026;2023-02-21T08:45:45;7.80;99.90
31133;DHT22;17779;50.942;4.026;2023-02-21T08:48:10;8.00;99.90
31133;DHT22;17779;50.942;4.026;2023-02-21T08:50:36;8.00;99.90
31133;DHT22;17779;50.942;4.026;2023-02-21T08:53:02;8.00;99.90
31133;DHT22;17779;50.942;4.026;2023-02-21T08:55:27;8.10;99.90
31133;DHT22;17779;50.942;4.026;2023-02-21T08:57:53;8.20;99.90
31133;DHT22;17779;50.942;4.026;2023-02-21T09:00:20;8.20;99.90
31133;DHT22;17779;50.942;4.026;2023-02-21T09:02:51;8.20;99.90
31133;DHT22;17779;50.942;4.026;2023-02-21T09:05:18;8.20;99.90
31133;DHT22;17779;50.942;4.026;2023-02-21T09:07:48;8.20;99.90
31133;DHT22;17779;50.942;4.026;2023-02-21T09:10:14;8.20;99.90
31133;DHT22;17779;50.942;4.026;2023-02-21T09:12:39;8.50;99.90
31133;DHT22;17779;50.942;4.026;2023-02-21T09:15:06;8.50;99.90
31133;DHT22;17779;50.942;4.026;2023-02-21T09:17:32;8.20;99.90
31133;DHT22;17779;50.942;4.026;2023-02-21T09:19:59;8.20;99.90
31133;DHT22;17779;50.942;4.026;2023-02-21T09:22:26;8.30;99.90
31133;DHT22;17779;50.942;4.026;2023-02-21T09:24:52;8.20;99.90
31133;DHT22;17779;50.942;4.026;2023-02-21T09:27:18;8.20;99.90
31133;DHT22;17779;50.942;4.026;2023-02-21T09:29:44;8.50;99.90
31133;DHT22;17779;50.942;4.026;2023-02-21T09:32:11;8.60;99.90
31133;DHT22;17779;50.942;4.026;2023-02-21T09:34:37;8.40;99.90
31133;DHT22;17779;50.942;4.026;2023-02-21T09:37:04;8.50;99.90
31133;DHT22;17779;50.942;4.026;2023-02-21T09:39:30;8.60;99.90
31133;DHT22;17779;50.942;4.026;2023-02-21T09:41:55;8.80;99.90
31133;DHT22;17779;50.942;4.026;2023-02-21T09:44:22;9.00;99.90
31133;DHT22;17779;50.942;4.026;2023-02-21T09:46:53;8.80;99.90
31133;DHT22;17779;50.942;4.026;2023-02-21T09:49:22;8.90;99.90
31133;DHT22;17779;50.942;4.026;2023-02-21T09:51:48;9.00;99.90
31133;DHT22;17779;50.942;4.026;2023-02-21T09:54:25;9.00;99.90
31133;DHT22;17779;50.942;4.026;2023-02-21T09:56:53;8.80;99.90
31133;DHT22;17779;50.942;4.026;2023-02-21T09:59:18;8.50;99.90
31133;DHT22;17779;50.942;4.026;2023-02-21T10:02:02;8.50;99.90
31133;DHT22;17779;50.942;4.026;2023-02-21T10:09:43;8.40;99.90
31133;DHT22;17779;50.942;4.026;2023-02-21T10:12:27;8.30;99.90
31133;DHT22;17779;50.942;4.026;2023-02-21T10:17:42;8.20;99.90
31133;DHT22;17779;50.942;4.026;2023-02-21T10:20:12;8.10;99.90
31133;DHT22;17779;50.942;4.026;2023-02-21T10:22:39;8.20;99.90
31133;DHT22;17779;50.942;4.026;2023-02-21T10:25:24;8.30;99.90
31133;DHT22;17779;50.942;4.026;2023-02-21T10:27:50;8.50;99.90
31133;DHT22;17779;50.942;4.026;2023-02-21T10:30:25;8.30;99.90
31133;DHT22;17779;50.942;4.026;2023-02-21T10:32:51;8.50;99.90
31133;DHT22;17779;50.942;4.026;2023-02-21T10:35:17;8.60;99.90
31133;DHT22;17779;50.942;4.026;2023-02-21T10:38:02;8.60;99.90
31133;DHT22;17779;50.942;4.026;2023-02-21T10:40:35;8.70;99.90
31133;DHT22;17779;50.942;4.026;2023-02-21T10:45:49;8.60;99.90
31133;DHT22;17779;50.942;4.026;2023-02-21T10:48:18;8.60;99.90
31133;DHT22;17779;50.942;4.026;2023-02-21T10:50:48;8.70;99.90
31133;DHT22;17779;50.942;4.026;2023-02-21T10:53:23;8.60;99.90
31133;DHT22;17779;50.942;4.026;2023-02-21T10:56:23;8.80;99.90
31133;DHT22;17779;50.942;4.026;2023-02-21T10:58:47;8.90;99.90
31133;DHT22;17779;50.942;4.026;2023-02-21T11:01:16;8.80;99.90
31133;DHT22;17779;50.942;4.026;2023-02-21T11:03:45;9.00;99.90
31133;DHT22;17779;50.942;4.026;2023-02-21T11:08:55;8.80;99.90
31133;DHT22;17779;50.942;4.026;2023-02-21T11:11:38;8.60;99.90
31133;DHT22;17779;50.942;4.026;2023-02-21T11:14:23;8.60;99.90
31133;DHT22;17779;50.942;4.026;2023-02-21T11:17:03;8.80;99.90
31133;DHT22;17779;50.942;4.026;2023-02-21T11:19:29;8.70;99.90
31133;DHT22;17779;50.942;4.026;2023-02-21T11:22:06;8.70;99.90
31133;DHT22;17779;50.942;4.026;2023-02-21T11:24:42;8.70;99.90
31133;DHT22;17779;50.942;4.026;2023-02-21T11:27:08;8.60;99.90
31133;DHT22;17779;50.942;4.026;2023-02-21T11:29:34;8.50;99.90
31133;DHT22;17779;50.942;4.026;2023-02-21T11:32:07;8.50;99.90
31133;DHT22;17779;50.942;4.026;2023-02-21T11:34:34;8.90;99.90
31133;DHT22;17779;50.942;4.026;2023-02-21T11:37:00;8.90;99.90
31133;DHT22;17779;50.942;4.026;2023-02-21T11:39:33;8.70;99.90
31133;DHT22;17779;50.942;4.026;2023-02-21T11:42:00;8.90;99.90
31133;DHT22;17779;50.942;4.026;2023-02-21T11:47:06;8.90;99.90
31133;DHT22;17779;50.942;4.026;2023-02-21T11:49:46;9.20;99.90
31133;DHT22;17779;50.942;4.026;2023-02-21T11:52:14;8.90;99.90
31133;DHT22;17779;50.942;4.026;2023-02-21T11:54:42;8.70;99.90
31133;DHT22;17779;50.942;4.026;2023-02-21T11:57:12;8.60;99.90
31133;DHT22;17779;50.942;4.026;2023-02-21T12:12:32;8.90;99.90
31133;DHT22;17779;50.942;4.026;2023-02-21T12:15:06;8.90;99.90
31133;DHT22;17779;50.942;4.026;2023-02-21T12:35:37;9.50;99.90
31133;DHT22;17779;50.942;4.026;2023-02-21T12:40:52;9.90;99.90
31133;DHT22;17779;50.942;4.026;2023-02-21T12:46:18;9.50;99.90
31133;DHT22;17779;50.942;4.026;2023-02-21T12:51:16;9.50;99.90
31133;DHT22;17779;50.942;4.026;2023-02-21T12:56:10;9.90;99.90
31133;DHT22;17779;50.942;4.026;2023-02-21T12:58:54;9.80;99.90
31133;DHT22;17779;50.942;4.026;2023-02-21T13:01:24;10.00;99.90
31133;DHT22;17779;50.942;4.026;2023-02-21T13:04:05;9.90;99.90
31133;DHT22;17779;50.942;4.026;2023-02-21T13:06:36;10.10;99.90
31133;DHT22;17779;50.942;4.026;2023-02-21T13:09:21;10.20;99.90
31133;DHT22;17779;50.942;4.026;2023-02-21T13:12:06;10.00;99.90
31133;DHT22;17779;50.942;4.026;2023-02-21T13:14:38;9.50;99.90
31133;DHT22;17779;50.942;4.026;2023-02-21T13:17:08;9.50;99.90
31133;DHT22;17779;50.942;4.026;2023-02-21T13:19:37;9.60;99.90
31133;DHT22;17779;50.942;4.026;2023-02-21T13:22:11;9.50;99.90
31133;DHT22;17779;50.942;4.026;2023-02-21T13:25:09;9.80;99.90
31133;DHT22;17779;50.942;4.026;2023-02-21T13:27:53;10.40;99.90
31133;DHT22;17779;50.942;4.026;2023-02-21T13:32:50;10.80;99.90
31133;DHT22;17779;50.942;4.026;2023-02-21T13:35:18;11.00;99.90
31133;DHT22;17779;50.942;4.026;2023-02-21T13:37:45;10.70;99.90
31133;DHT22;17779;50.942;4.026;2023-02-21T13:40:18;10.70;99.90
31133;DHT22;17779;50.942;4.026;2023-02-21T13:42:46;10.60;99.90
31133;DHT22;17779;50.942;4.026;2023-02-21T13:55:28;10.10;99.90
31133;DHT22;17779;50.942;4.026;2023-02-21T14:02:54;9.80;99.90
31133;DHT22;17779;50.942;4.026;2023-02-21T14:05:20;10.00;99.90
31133;DHT22;17779;50.942;4.026;2023-02-21T14:07:47;9.90;99.90
31133;DHT22;17779;50.942;4.026;2023-02-21T14:10:24;10.20;99.90
31133;DHT22;17779;50.942;4.026;2023-02-21T14:12:54;10.30;99.90
31133;DHT22;17779;50.942;4.026;2023-02-21T14:15:20;10.20;99.90
31133;DHT22;17779;50.942;4.026;2023-02-21T14:17:46;9.90;99.90
31133;DHT22;17779;50.942;4.026;2023-02-21T14:20:16;10.20;99.90
31133;DHT22;17779;50.942;4.026;2023-02-21T14:22:43;10.40;99.90
31133;DHT22;17779;50.942;4.026;2023-02-21T14:25:21;10.40;99.90
31133;DHT22;17779;50.942;4.026;2023-02-21T14:27:48;10.30;99.90
31133;DHT22;17779;50.942;4.026;2023-02-21T14:30:29;10.30;99.90
31133;DHT22;17779;50.942;4.026;2023-02-21T14:32:57;10.10;99.90
31133;DHT22;17779;50.942;4.026;2023-02-21T14:35:28;9.90;99.90
31133;DHT22;17779;50.942;4.026;2023-02-21T14:37:58;9.70;99.90
31133;DHT22;17779;50.942;4.026;2023-02-21T14:48:44;9.60;99.90
31133;DHT22;17779;50.942;4.026;2023-02-21T14:53:44;9.30;99.90
31133;DHT22;17779;50.942;4.026;2023-02-21T14:58:48;9.40;99.90
31133;DHT22;17779;50.942;4.026;2023-02-21T15:01:31;9.50;99.90
31133;DHT22;17779;50.942;4.026;2023-02-21T15:04:08;9.50;99.90
31133;DHT22;17779;50.942;4.026;2023-02-21T15:06:35;9.50;99.90
31133;DHT22;17779;50.942;4.026;2023-02-21T15:09:10;9.50;99.90
31133;DHT22;17779;50.942;4.026;2023-02-21T15:11:36;9.50;99.90
31133;DHT22;17779;50.942;4.026;2023-02-21T15:14:45;9.60;99.90
31133;DHT22;17779;50.942;4.026;2023-02-21T15:16:57;9.30;99.90
31133;DHT22;17779;50.942;4.026;2023-02-21T15:19:25;9.20;99.90
31133;DHT22;17779;50.942;4.026;2023-02-21T15:24:37;9.10;99.90
31133;DHT22;17779;50.942;4.026;2023-02-21T15:27:12;9.20;99.90
31133;DHT22;17779;50.942;4.026;2023-02-21T15:29:38;9.50;99.90
31133;DHT22;17779;50.942;4.026;2023-02-21T15:32:04;9.40;99.90
31133;DHT22;17779;50.942;4.026;2023-02-21T15:37:00;9.00;99.90
31133;DHT22;17779;50.942;4.026;2023-02-21T15:41:52;9.00;99.90
31133;DHT22;17779;50.942;4.026;2023-02-21T15:44:40;9.10;99.90
31133;DHT22;17779;50.942;4.026;2023-02-21T15:47:11;8.90;99.90
31133;DHT22;17779;50.942;4.026;2023-02-21T15:49:42;9.00;99.90
31133;DHT22;17779;50.942;4.026;2023-02-21T16:00:26;8.80;99.90
31133;DHT22;17779;50.942;4.026;2023-02-21T16:03:20;8.80;99.90
31133;DHT22;17779;50.942;4.026;2023-02-21T16:05:38;8.70;99.90
31133;DHT22;17779;50.942;4.026;2023-02-21T16:08:03;8.70;99.90
31133;DHT22;17779;50.942;4.026;2023-02-21T16:10:29;8.80;99.90
31133;DHT22;17779;50.942;4.026;2023-02-21T16:12:56;8.80;99.90
31133;DHT22;17779;50.942;4.026;2023-02-21T16:15:24;8.80;99.90
31133;DHT22;17779;50.942;4.026;2023-02-21T16:17:51;8.90;99.90
31133;DHT22;17779;50.942;4.026;2023-02-21T16:20:20;9.10;99.90
31133;DHT22;17779;50.942;4.026;2023-02-21T16:22:47;9.00;99.90
31133;DHT22;17779;50.942;4.026;2023-02-21T16:25:15;9.00;99.90
31133;DHT22;17779;50.942;4.026;2023-02-21T16:27:43;8.90;99.90
31133;DHT22;17779;50.942;4.026;2023-02-21T16:30:11;9.00;99.90
31133;DHT22;17779;50.942;4.026;2023-02-21T16:32:37;9.00;99.90
31133;DHT22;17779;50.942;4.026;2023-02-21T16:35:04;9.00;99.90
31133;DHT22;17779;50.942;4.026;2023-02-21T16:37:30;9.10;99.90
31133;DHT22;17779;50.942;4.026;2023-02-21T16:39:56;9.20;99.90
31133;DHT22;17779;50.942;4.026;2023-02-21T16:42:22;9.40;99.90
31133;DHT22;17779;50.942;4.026;2023-02-21T16:44:48;9.40;99.90
31133;DHT22;17779;50.942;4.026;2023-02-21T16:47:15;9.10;99.90
31133;DHT22;17779;50.942;4.026;2023-02-21T16:49:42;8.90;99.90
31133;DHT22;17779;50.942;4.026;2023-02-21T16:52:15;8.90;99.90
31133;DHT22;17779;50.942;4.026;2023-02-21T16:54:40;9.10;99.90
31133;DHT22;17779;50.942;4.026;2023-02-21T16:57:06;9.20;99.90
31133;DHT22;17779;50.942;4.026;2023-02-21T16:59:32;9.40;99.90
31133;DHT22;17779;50.942;4.026;2023-02-21T17:01:58;9.20;99.90
31133;DHT22;17779;50.942;4.026;2023-02-21T17:04:24;9.40;99.90
31133;DHT22;17779;50.942;4.026;2023-02-21T17:06:57;9.50;99.90
31133;DHT22;17779;50.942;4.026;2023-02-21T17:09:24;9.30;99.90
31133;DHT22;17779;50.942;4.026;2023-02-21T17:11:50;9.20;99.90
31133;DHT22;17779;50.942;4.026;2023-02-21T17:14:17;9.20;99.90
31133;DHT22;17779;50.942;4.026;2023-02-21T17:16:43;9.30;99.90
31133;DHT22;17779;50.942;4.026;2023-02-21T17:19:10;9.20;99.90
31133;DHT22;17779;50.942;4.026;2023-02-21T17:21:37;9.10;99.90
31133;DHT22;17779;50.942;4.026;2023-02-21T17:24:02;8.90;99.90
31133;DHT22;17779;50.942;4.026;2023-02-21T17:26:28;8.70;99.90
31133;DHT22;17779;50.942;4.026;2023-02-21T17:28:54;8.70;99.90
31133;DHT22;17779;50.942;4.026;2023-02-21T17:31:19;8.70;99.90
31133;DHT22;17779;50.942;4.026;2023-02-21T17:33:45;9.00;99.90
31133;DHT22;17779;50.942;4.026;2023-02-21T17:36:18;9.10;99.90
31133;DHT22;17779;50.942;4.026;2023-02-21T17:38:44;9.20;99.90
31133;DHT22;17779;50.942;4.026;2023-02-21T17:41:10;8.80;99.90
31133;DHT22;17779;50.942;4.026;2023-02-21T17:43:36;8.50;99.90
31133;DHT22;17779;50.942;4.026;2023-02-21T17:46:03;8.20;99.90
31133;DHT22;17779;50.942;4.026;2023-02-21T17:48:29;8.10;99.90
31133;DHT22;17779;50.942;4.026;2023-02-21T17:50:55;8.20;99.90
31133;DHT22;17779;50.942;4.026;2023-02-21T17:53:20;8.20;99.90
31133;DHT22;17779;50.942;4.026;2023-02-21T17:55:47;8.20;99.90
31133;DHT22;17779;50.942;4.026;2023-02-21T17:58:12;8.20;99.90
31133;DHT22;17779;50.942;4.026;2023-02-21T18:00:38;8.10;99.90
31133;DHT22;17779;50.942;4.026;2023-02-21T18:03:05;8.10;99.90
31133;DHT22;17779;50.942;4.026;2023-02-21T18:05:32;8.10;99.90
31133;DHT22;17779;50.942;4.026;2023-02-21T18:07:58;8.10;99.90
31133;DHT22;17779;50.942;4.026;2023-02-21T18:10:24;8.10;99.90